Time;durP1;ratioP1;P1;durP2;ratioP2;P2;SDS_P1;SDS_P2;PMS_P1;PMS_P2;Temp;Humidity;BMP_temperature;BMP_pressure;BME280_temperature;BME280_humidity;BME280_pressure;Samples;Min_cycle;Max_cycle;Signal;HPM_P1;HPM_P2
2022/04/13 00:00:29;;;;;;;13.32;8.38;;;14.10;99.90;;;;;;5086060;28;20036;-70
2022/04/13 00:02:55;;;;;;;12.10;8.70;;;14.10;99.90;;;;;;5081612;28;20040;-70
2022/04/13 00:05:21;;;;;;;10.30;8.02;;;14.20;99.90;;;;;;5084878;28;20454;-70
2022/04/13 00:07:47;;;;;;;11.85;7.93;;;14.20;99.90;;;;;;5086106;28;20037;-70
2022/04/13 00:10:13;;;;;;;10.50;7.13;;;14.20;99.90;;;;;;5085688;28;20118;-70
2022/04/13 00:12:38;;;;;;;11.32;7.53;;;14.20;99.90;;;;;;5084835;28;20119;-67
2022/04/13 00:15:06;;;;;;;12.88;7.32;;;14.20;99.90;;;;;;5086016;28;20124;-68
2022/04/13 00:17:32;;;;;;;12.73;7.40;;;14.20;99.90;;;;;;5083361;28;20051;-68
2022/04/13 00:20:01;;;;;;;12.88;6.65;;;14.20;99.90;;;;;;5086296;28;20044;-67
2022/04/13 00:22:26;;;;;;;10.73;6.90;;;14.20;99.90;;;;;;5083044;28;20083;-70
2022/04/13 00:24:52;;;;;;;12.45;6.82;;;14.20;99.90;;;;;;5087193;28;20071;-70
2022/04/13 00:27:18;;;;;;;11.60;6.75;;;14.20;99.90;;;;;;5078421;28;20100;-70
2022/04/13 00:29:43;;;;;;;11.07;6.85;;;14.20;99.90;;;;;;5084617;28;20487;-70
2022/04/13 00:32:09;;;;;;;12.10;7.10;;;14.20;99.90;;;;;;5077786;28;20090;-70
2022/04/13 00:34:34;;;;;;;12.55;6.78;;;14.20;99.90;;;;;;5085645;28;20105;-70
2022/04/13 00:37:01;;;;;;;10.85;6.60;;;14.20;99.90;;;;;;5083335;28;20414;-70
2022/04/13 00:39:27;;;;;;;9.25;6.30;;;14.20;99.90;;;;;;5085218;28;20484;-70
2022/04/13 00:42:19;;;;;;;10.80;6.57;;;14.20;99.90;;;;;;5082964;28;20055;-70
2022/04/13 00:44:44;;;;;;;12.20;7.35;;;14.20;99.90;;;;;;5083937;28;20440;-70
2022/04/13 00:47:10;;;;;;;12.30;6.90;;;14.10;99.90;;;;;;5081389;28;20134;-70
2022/04/13 00:49:37;;;;;;;10.85;6.63;;;14.10;99.90;;;;;;5088105;28;20032;-70
2022/04/13 00:52:05;;;;;;;11.85;6.60;;;14.10;99.90;;;;;;5082356;28;20079;-70
2022/04/13 00:54:31;;;;;;;12.02;6.88;;;14.10;99.90;;;;;;5085693;28;20043;-70
2022/04/13 00:57:01;;;;;;;9.30;6.90;;;14.00;99.90;;;;;;5079526;28;20040;-70
2022/04/13 00:59:26;;;;;;;12.93;7.20;;;13.90;99.90;;;;;;5084510;28;20040;-70
2022/04/13 01:01:56;;;;;;;13.55;7.07;;;13.90;99.90;;;;;;5081621;28;20039;-70
2022/04/13 01:04:25;;;;;;;10.93;6.70;;;13.90;99.90;;;;;;5083782;28;20125;-67
2022/04/13 01:06:52;;;;;;;10.65;7.13;;;13.90;99.90;;;;;;5081772;28;20468;-67
2022/04/13 01:09:18;;;;;;;12.50;7.25;;;13.80;99.90;;;;;;5082633;28;20047;-68
2022/04/13 01:11:44;;;;;;;10.77;6.97;;;13.80;99.90;;;;;;5083626;28;20043;-69
2022/04/13 01:14:09;;;;;;;11.05;6.97;;;13.80;99.90;;;;;;5087713;28;20047;-69
2022/04/13 01:16:37;;;;;;;11.00;6.85;;;13.70;99.90;;;;;;5083049;28;20128;-68
2022/04/13 01:19:04;;;;;;;14.07;7.05;;;13.70;99.90;;;;;;5077041;28;20071;-68
2022/04/13 01:21:40;;;;;;;12.50;7.30;;;13.70;99.90;;;;;;5081200;28;20379;-69
2022/04/13 01:24:06;;;;;;;10.88;6.57;;;13.70;99.90;;;;;;5081475;28;20269;-68
2022/04/13 01:26:31;;;;;;;10.95;6.97;;;13.60;99.90;;;;;;5084005;28;20056;-68
2022/04/13 01:28:57;;;;;;;13.20;7.28;;;13.60;99.90;;;;;;5081185;28;20059;-68
2022/04/13 01:31:22;;;;;;;12.07;7.35;;;13.60;99.90;;;;;;5083579;28;20131;-68
2022/04/13 01:33:48;;;;;;;10.02;6.80;;;13.50;99.90;;;;;;5083532;28;20167;-68
2022/04/13 01:36:13;;;;;;;11.38;6.80;;;13.50;99.90;;;;;;5079060;28;20101;-68
2022/04/13 01:38:39;;;;;;;9.38;6.72;;;13.40;99.90;;;;;;5082896;28;20438;-68
2022/04/13 01:41:04;;;;;;;11.93;7.18;;;13.40;99.90;;;;;;5080174;28;20497;-68
2022/04/13 01:43:30;;;;;;;12.73;7.25;;;13.40;99.90;;;;;;5075746;28;20048;-68
2022/04/13 01:45:57;;;;;;;12.40;6.97;;;13.30;99.90;;;;;;5084945;28;20158;-68
2022/04/13 01:48:22;;;;;;;12.02;7.55;;;13.30;99.90;;;;;;5082358;28;20153;-68
2022/04/13 01:50:49;;;;;;;11.35;6.63;;;13.30;99.90;;;;;;5081869;28;20457;-68
2022/04/13 01:53:14;;;;;;;9.45;6.47;;;13.30;99.90;;;;;;5083031;28;20055;-68
2022/04/13 01:55:40;;;;;;;12.27;7.47;;;13.30;99.90;;;;;;5083301;28;20472;-69
2022/04/13 01:58:06;;;;;;;12.57;7.10;;;13.30;99.90;;;;;;5081953;28;20102;-69
2022/04/13 02:00:31;;;;;;;10.32;6.82;;;13.30;99.90;;;;;;5081437;28;20056;-69
2022/04/13 02:02:57;;;;;;;13.45;7.65;;;13.30;99.90;;;;;;5084759;28;20134;-68
2022/04/13 02:05:23;;;;;;;13.35;7.43;;;13.30;99.90;;;;;;5081397;28;20040;-69
2022/04/13 02:07:48;;;;;;;10.32;7.25;;;13.20;99.90;;;;;;5083188;28;20036;-69
2022/04/13 02:10:14;;;;;;;11.13;7.10;;;13.20;99.90;;;;;;5083790;28;20044;-69
2022/04/13 02:12:39;;;;;;;14.30;7.35;;;13.20;99.90;;;;;;5082800;28;20028;-69
2022/04/13 02:15:06;;;;;;;12.93;7.88;;;13.20;99.90;;;;;;5080942;28;20154;-68
2022/04/13 02:17:31;;;;;;;9.85;7.20;;;13.20;99.90;;;;;;5082709;28;20090;-69
2022/04/13 02:19:57;;;;;;;11.23;6.78;;;13.10;99.90;;;;;;5082600;28;20414;-69
2022/04/13 02:22:22;;;;;;;10.05;7.38;;;13.10;99.90;;;;;;5078134;28;20391;-69
2022/04/13 02:24:48;;;;;;;9.55;6.95;;;13.10;99.90;;;;;;5084360;28;20039;-69
2022/04/13 02:27:13;;;;;;;12.55;7.80;;;13.00;99.90;;;;;;5081067;28;20124;-69
2022/04/13 02:29:40;;;;;;;10.25;7.90;;;12.90;99.90;;;;;;5079905;28;20044;-69
2022/04/13 02:32:06;;;;;;;13.95;8.45;;;12.90;99.90;;;;;;5082319;28;20040;-68
2022/04/13 02:34:32;;;;;;;15.95;7.88;;;12.80;99.90;;;;;;5083917;28;20488;-69
2022/04/13 02:36:58;;;;;;;12.43;7.38;;;12.90;99.90;;;;;;5081586;28;20468;-69
2022/04/13 02:39:24;;;;;;;11.63;8.13;;;12.90;99.90;;;;;;5081490;28;20770;-69
2022/04/13 02:41:49;;;;;;;13.48;8.85;;;12.80;99.90;;;;;;5077148;28;20048;-69
2022/04/13 02:44:15;;;;;;;19.70;10.38;;;12.80;99.90;;;;;;5081571;28;20222;-69
2022/04/13 02:46:41;;;;;;;16.05;10.77;;;12.80;99.90;;;;;;5080114;28;20506;-69
2022/04/13 02:49:07;;;;;;;17.17;10.93;;;12.80;99.90;;;;;;5082124;28;20070;-69
2022/04/13 02:51:33;;;;;;;17.95;11.13;;;12.90;99.90;;;;;;5085629;28;20429;-69
2022/04/13 02:53:58;;;;;;;17.10;11.10;;;12.90;99.90;;;;;;5082333;28;20189;-69
2022/04/13 02:56:24;;;;;;;21.65;11.32;;;12.90;99.90;;;;;;5080357;28;21141;-69
2022/04/13 02:58:50;;;;;;;21.25;11.35;;;12.90;99.90;;;;;;5083222;28;20048;-69
2022/04/13 03:01:15;;;;;;;19.17;11.68;;;12.90;99.90;;;;;;5080082;28;20484;-69
2022/04/13 03:03:41;;;;;;;18.15;11.55;;;12.90;99.90;;;;;;5082575;28;20128;-69
2022/04/13 03:06:06;;;;;;;17.17;11.27;;;12.90;99.90;;;;;;5082589;28;20127;-69
2022/04/13 03:08:32;;;;;;;21.42;12.18;;;12.90;99.90;;;;;;5080586;28;20044;-69
2022/04/13 03:10:57;;;;;;;19.90;11.50;;;12.90;99.90;;;;;;5083025;28;20041;-69
2022/04/13 03:13:23;;;;;;;20.35;11.15;;;12.90;99.90;;;;;;5083080;28;20039;-69
2022/04/13 03:15:49;;;;;;;19.52;10.75;;;12.90;99.90;;;;;;5086619;28;20097;-69
2022/04/13 03:18:14;;;;;;;22.35;11.75;;;12.80;99.90;;;;;;5086191;28;20042;-69
2022/04/13 03:20:40;;;;;;;16.95;10.90;;;12.80;99.90;;;;;;5087316;28;20104;-69
2022/04/13 03:23:05;;;;;;;17.38;10.50;;;12.80;99.90;;;;;;5085991;28;20438;-68
2022/04/13 03:25:33;;;;;;;14.48;10.48;;;12.70;99.90;;;;;;5084823;28;20127;-69
2022/04/13 03:27:58;;;;;;;14.55;10.68;;;12.70;99.90;;;;;;5084236;28;20083;-69
2022/04/13 03:30:24;;;;;;;15.75;10.98;;;12.70;99.90;;;;;;5086976;28;20588;-69
2022/04/13 03:32:52;;;;;;;19.50;11.38;;;12.60;99.90;;;;;;5087332;28;20043;-68
2022/04/13 03:35:18;;;;;;;15.07;10.30;;;12.60;99.90;;;;;;5085477;28;20488;-69
2022/04/13 03:37:43;;;;;;;17.40;10.55;;;12.50;99.90;;;;;;5084444;28;20035;-69
2022/04/13 03:40:11;;;;;;;15.60;10.90;;;12.50;99.90;;;;;;5085677;28;20131;-69
2022/04/13 03:42:38;;;;;;;15.65;11.10;;;12.40;99.90;;;;;;5086146;28;20040;-69
2022/04/13 03:45:12;;;;;;;15.82;11.10;;;12.40;99.90;;;;;;5085983;28;20116;-69
2022/04/13 03:47:39;;;;;;;18.25;11.30;;;12.30;99.90;;;;;;5080260;28;20170;-69
2022/04/13 03:50:06;;;;;;;19.48;11.63;;;12.30;99.90;;;;;;5085504;28;20113;-69
2022/04/13 03:52:33;;;;;;;18.67;12.02;;;12.30;99.90;;;;;;5086168;28;20153;-69
2022/04/13 03:54:59;;;;;;;18.52;11.88;;;12.20;99.90;;;;;;5084934;28;20124;-69
2022/04/13 03:57:24;;;;;;;18.77;11.48;;;12.20;99.90;;;;;;5081044;28;20079;-69
2022/04/13 03:59:50;;;;;;;16.85;12.20;;;12.20;99.90;;;;;;5086347;28;20050;-69
2022/04/13 04:02:16;;;;;;;20.25;12.95;;;12.20;99.90;;;;;;5084568;28;20040;-69
2022/04/13 04:04:41;;;;;;;19.35;12.65;;;12.10;99.90;;;;;;5084792;28;20536;-69
2022/04/13 04:07:07;;;;;;;18.98;13.02;;;12.10;99.90;;;;;;5082830;28;20312;-69
2022/04/13 04:09:33;;;;;;;19.85;13.38;;;12.10;99.90;;;;;;5081369;28;20052;-69
2022/04/13 04:11:58;;;;;;;20.23;13.68;;;12.10;99.90;;;;;;5083014;28;20506;-69
2022/04/13 04:14:24;;;;;;;19.10;13.23;;;12.10;99.90;;;;;;5078665;28;20169;-69
2022/04/13 04:16:50;;;;;;;18.60;12.85;;;12.00;99.90;;;;;;5084769;28;20147;-69
2022/04/13 04:19:15;;;;;;;20.35;13.23;;;12.00;99.90;;;;;;5075851;28;20154;-69
2022/04/13 04:21:41;;;;;;;22.27;13.63;;;12.00;99.90;;;;;;5084549;28;20067;-68
2022/04/13 04:24:07;;;;;;;19.00;12.82;;;11.90;99.90;;;;;;5083888;28;20036;-68
2022/04/13 04:26:32;;;;;;;18.70;12.57;;;11.90;99.90;;;;;;5083156;28;20540;-68
2022/04/13 04:28:58;;;;;;;17.88;13.00;;;11.90;99.90;;;;;;5087670;28;20063;-68
2022/04/13 04:34:08;;;;;;;20.15;13.35;;;11.90;99.90;;;;;;5084994;28;20113;-67
2022/04/13 04:36:34;;;;;;;16.52;12.55;;;11.80;99.90;;;;;;5080311;28;20036;-68
2022/04/13 04:38:59;;;;;;;19.83;13.45;;;11.80;99.90;;;;;;5085762;28;20032;-68
2022/04/13 04:41:25;;;;;;;20.67;13.25;;;11.80;99.90;;;;;;5079156;28;20139;-68
2022/04/13 04:43:50;;;;;;;20.10;13.13;;;11.80;99.90;;;;;;5084186;28;20131;-68
2022/04/13 04:46:16;;;;;;;20.90;12.80;;;11.90;99.90;;;;;;5086128;28;20051;-68
2022/04/13 04:48:42;;;;;;;17.85;12.93;;;11.90;99.90;;;;;;5085430;28;20039;-68
2022/04/13 04:51:14;;;;;;;18.42;12.93;;;11.90;99.90;;;;;;5085251;28;20044;-67
2022/04/13 04:53:41;;;;;;;18.58;13.07;;;11.90;99.90;;;;;;5085357;28;20094;-67
2022/04/13 04:56:07;;;;;;;19.63;12.55;;;11.90;99.90;;;;;;5074900;28;20488;-68
2022/04/13 04:58:33;;;;;;;21.88;14.02;;;11.90;99.90;;;;;;5080766;28;20038;-68
2022/04/13 05:00:59;;;;;;;22.35;13.70;;;11.90;99.90;;;;;;5084967;28;20046;-68
2022/04/13 05:03:24;;;;;;;22.25;12.88;;;11.80;99.90;;;;;;5086451;28;20503;-68
2022/04/13 05:05:50;;;;;;;22.65;13.20;;;11.80;99.90;;;;;;5083668;28;20040;-68
2022/04/13 05:08:15;;;;;;;20.80;14.65;;;11.90;99.90;;;;;;5082856;28;20041;-68
2022/04/13 05:10:42;;;;;;;20.90;12.63;;;11.80;99.90;;;;;;5077919;28;20112;-68
2022/04/13 05:13:08;;;;;;;20.10;13.35;;;11.80;99.90;;;;;;5082735;28;20127;-68
2022/04/13 05:15:33;;;;;;;18.15;12.73;;;11.80;99.90;;;;;;5076579;28;20123;-68
2022/04/13 05:17:59;;;;;;;17.50;12.90;;;11.90;99.90;;;;;;5080099;28;20040;-68
2022/04/13 05:20:25;;;;;;;20.35;13.43;;;11.90;99.90;;;;;;5074210;28;20428;-68
2022/04/13 05:22:50;;;;;;;16.13;12.18;;;11.80;99.90;;;;;;5081017;28;20165;-68
2022/04/13 05:25:17;;;;;;;21.13;13.32;;;11.90;99.90;;;;;;5077039;28;20140;-69
2022/04/13 05:27:43;;;;;;;18.40;13.40;;;11.90;99.90;;;;;;5078068;28;20330;-68
2022/04/13 05:30:11;;;;;;;19.65;13.38;;;12.00;99.90;;;;;;5081596;28;20044;-68
2022/04/13 05:32:50;;;;;;;19.88;13.18;;;12.00;99.90;;;;;;5073030;28;20041;-68
2022/04/13 05:35:18;;;;;;;19.48;13.88;;;12.00;99.90;;;;;;5076515;28;20456;-68
2022/04/13 05:37:44;;;;;;;19.00;13.13;;;12.00;99.90;;;;;;5085936;28;20039;-69
2022/04/13 05:40:11;;;;;;;18.45;12.95;;;12.00;99.90;;;;;;5080413;28;20036;-69
2022/04/13 05:42:37;;;;;;;20.52;12.80;;;12.10;99.90;;;;;;5081379;28;20036;-68
2022/04/13 05:45:02;;;;;;;18.55;12.80;;;12.10;99.90;;;;;;5086826;28;20040;-68
2022/04/13 05:47:29;;;;;;;19.33;13.35;;;12.10;99.90;;;;;;5080180;28;20040;-68
2022/04/13 05:49:54;;;;;;;17.90;12.07;;;12.10;99.90;;;;;;5083481;28;20134;-69
2022/04/13 05:52:20;;;;;;;19.33;12.52;;;12.10;99.90;;;;;;5075277;28;20123;-69
2022/04/13 05:54:45;;;;;;;17.27;12.27;;;12.20;99.90;;;;;;5079888;28;20047;-68
2022/04/13 05:57:12;;;;;;;18.35;11.60;;;12.20;99.90;;;;;;5082470;28;20114;-69
2022/04/13 05:59:38;;;;;;;20.48;12.25;;;12.30;99.90;;;;;;5078077;28;20235;-68
2022/04/13 06:02:03;;;;;;;19.85;12.18;;;12.40;99.90;;;;;;5086111;28;20135;-69
2022/04/13 06:04:29;;;;;;;15.32;11.30;;;12.50;99.90;;;;;;5086519;28;20117;-68
2022/04/13 06:06:55;;;;;;;16.20;11.60;;;12.70;99.90;;;;;;5088093;28;20159;-69
2022/04/13 06:09:22;;;;;;;19.50;11.02;;;12.70;99.90;;;;;;5086385;28;20097;-69
2022/04/13 06:11:48;;;;;;;17.88;11.27;;;12.80;99.90;;;;;;5085786;28;20114;-68
2022/04/13 06:14:14;;;;;;;16.45;11.07;;;12.90;99.90;;;;;;5083770;28;20122;-68
2022/04/13 06:16:39;;;;;;;15.10;10.98;;;12.90;99.90;;;;;;5082531;28;20058;-68
2022/04/13 06:19:05;;;;;;;18.33;10.50;;;13.10;99.90;;;;;;5084642;28;20361;-68
2022/04/13 06:21:30;;;;;;;18.48;11.10;;;13.10;99.90;;;;;;5068736;28;20119;-69
2022/04/13 06:23:56;;;;;;;18.15;10.38;;;13.10;99.90;;;;;;5087689;28;20110;-68
2022/04/13 06:26:21;;;;;;;17.77;10.20;;;13.20;99.90;;;;;;5070858;28;20052;-69
2022/04/13 06:28:47;;;;;;;15.23;10.07;;;13.20;99.90;;;;;;5087995;28;20051;-69
2022/04/13 06:31:13;;;;;;;15.18;9.57;;;13.30;99.90;;;;;;5088218;28;20036;-68
2022/04/13 06:33:41;;;;;;;14.30;9.60;;;13.30;99.90;;;;;;5075550;28;20040;-68
2022/04/13 06:36:08;;;;;;;16.67;9.82;;;13.40;99.90;;;;;;5088637;28;20123;-68
2022/04/13 06:38:34;;;;;;;15.27;8.90;;;13.50;99.90;;;;;;5088628;28;20078;-68
2022/04/13 06:41:00;;;;;;;15.23;9.40;;;13.60;99.90;;;;;;5088951;28;20046;-66
2022/04/13 06:43:25;;;;;;;14.70;9.32;;;13.70;99.90;;;;;;5088566;28;20520;-69
2022/04/13 06:45:54;;;;;;;16.48;9.07;;;13.80;99.90;;;;;;5085214;28;21332;-67
2022/04/13 06:48:21;;;;;;;15.43;8.60;;;13.90;99.90;;;;;;5091552;28;20109;-68
2022/04/13 06:50:46;;;;;;;16.88;9.20;;;14.00;99.90;;;;;;5078203;28;20048;-67
2022/04/13 06:53:14;;;;;;;14.68;8.73;;;14.10;99.90;;;;;;5073938;28;20139;-68
2022/04/13 06:55:40;;;;;;;16.25;8.90;;;14.30;99.90;;;;;;5090711;28;20048;-67
2022/04/13 06:58:07;;;;;;;17.52;9.18;;;14.40;99.90;;;;;;5089206;28;20185;-67
2022/04/13 07:00:34;;;;;;;16.08;8.85;;;14.40;99.90;;;;;;5091123;28;20036;-66
2022/04/13 07:03:00;;;;;;;13.98;8.88;;;14.50;99.90;;;;;;5091877;28;20044;-67
2022/04/13 07:05:26;;;;;;;12.20;8.88;;;14.60;99.90;;;;;;5090572;28;20039;-68
2022/04/13 07:07:51;;;;;;;14.05;8.90;;;14.60;99.90;;;;;;5090694;28;20432;-67
2022/04/13 07:10:17;;;;;;;12.02;8.35;;;14.50;99.90;;;;;;5092111;28;20055;-68
2022/04/13 07:12:43;;;;;;;14.68;9.13;;;14.60;99.90;;;;;;5091542;28;20432;-67
2022/04/13 07:15:09;;;;;;;13.85;9.10;;;14.60;99.90;;;;;;5090241;28;20035;-67
2022/04/13 07:17:35;;;;;;;17.15;9.13;;;14.60;99.90;;;;;;5088183;28;20521;-67
2022/04/13 07:20:01;;;;;;;13.73;8.98;;;14.70;99.90;;;;;;5089328;28;20040;-68
2022/04/13 07:22:27;;;;;;;15.25;9.75;;;14.70;99.90;;;;;;5091664;28;20097;-67
2022/04/13 07:24:52;;;;;;;16.35;9.32;;;14.70;99.90;;;;;;5092218;28;20044;-68
2022/04/13 07:27:18;;;;;;;15.85;9.60;;;14.70;99.90;;;;;;5089624;28;20044;-67
2022/04/13 07:29:44;;;;;;;15.23;9.60;;;14.70;99.90;;;;;;5090651;28;20048;-69
2022/04/13 07:32:09;;;;;;;15.63;9.32;;;14.80;99.90;;;;;;5087925;28;20127;-68
2022/04/13 07:34:36;;;;;;;16.52;8.98;;;14.90;99.90;;;;;;5090122;28;20044;-68
2022/04/13 07:37:03;;;;;;;14.07;8.30;;;15.00;99.90;;;;;;5089918;28;20055;-68
2022/04/13 07:39:28;;;;;;;13.27;8.60;;;15.10;99.90;;;;;;5091578;28;20066;-68
2022/04/13 07:41:54;;;;;;;12.20;8.00;;;15.10;99.90;;;;;;5090978;28;20043;-68
2022/04/13 07:44:19;;;;;;;13.18;8.02;;;15.20;99.90;;;;;;5088239;28;20048;-68
2022/04/13 07:46:45;;;;;;;15.68;7.90;;;15.20;99.90;;;;;;5089472;28;20395;-68
2022/04/13 07:49:10;;;;;;;13.90;8.07;;;15.10;99.90;;;;;;5089604;28;20143;-68
2022/04/13 07:51:36;;;;;;;13.48;8.20;;;15.20;99.90;;;;;;5090912;28;20062;-67
2022/04/13 07:54:02;;;;;;;11.07;7.10;;;15.30;99.90;;;;;;5087124;28;20127;-67
2022/04/13 07:56:29;;;;;;;13.65;7.80;;;15.40;99.90;;;;;;5087985;28;20090;-68
2022/04/13 07:58:54;;;;;;;16.20;8.77;;;15.50;99.90;;;;;;5090136;28;20079;-68
2022/04/13 08:01:20;;;;;;;15.73;8.95;;;15.50;99.90;;;;;;5089033;28;20420;-68
2022/04/13 08:03:45;;;;;;;17.13;8.57;;;15.50;99.90;;;;;;5088852;28;20487;-68
2022/04/13 08:06:11;;;;;;;13.73;8.60;;;15.60;99.90;;;;;;5084966;28;20113;-67
2022/04/13 08:08:38;;;;;;;17.42;9.40;;;15.60;99.90;;;;;;5089455;28;20135;-68
2022/04/13 08:11:12;;;;;;;19.15;10.40;;;15.60;99.90;;;;;;5088612;28;20032;-67
2022/04/13 08:13:38;;;;;;;17.67;9.73;;;15.60;99.90;;;;;;5088645;28;20052;-69
2022/04/13 08:16:03;;;;;;;16.52;9.32;;;15.70;99.90;;;;;;5087702;28;20047;-68
2022/04/13 08:18:29;;;;;;;17.70;9.95;;;15.90;99.90;;;;;;5087075;28;20075;-66
2022/04/13 08:20:55;;;;;;;17.40;8.18;;;16.00;99.90;;;;;;5087930;28;20040;-66
2022/04/13 08:23:20;;;;;;;12.93;8.13;;;16.10;99.90;;;;;;5091071;28;20104;-66
2022/04/13 08:25:46;;;;;;;15.45;8.77;;;16.10;99.90;;;;;;5088318;28;20077;-67
2022/04/13 08:28:11;;;;;;;14.38;8.43;;;16.30;99.90;;;;;;5086663;28;20124;-67
2022/04/13 08:30:37;;;;;;;12.98;7.45;;;16.40;99.90;;;;;;5089118;28;20083;-66
2022/04/13 08:33:02;;;;;;;12.25;6.45;;;16.40;99.90;;;;;;5088364;28;20044;-67
2022/04/13 08:35:28;;;;;;;14.65;7.40;;;16.70;99.90;;;;;;5089201;28;20048;-67
2022/04/13 08:37:53;;;;;;;11.88;7.35;;;16.60;99.90;;;;;;5087568;28;20051;-67
2022/04/13 08:40:21;;;;;;;12.68;6.95;;;16.70;99.90;;;;;;5087451;28;20040;-66
2022/04/13 08:43:21;;;;;;;10.73;5.88;;;16.60;99.90;;;;;;5083810;28;20429;-67
2022/04/13 08:45:54;;;;;;;9.95;5.35;;;16.50;99.90;;;;;;5086412;28;20047;-67
2022/04/13 08:48:24;;;;;;;9.18;5.35;;;16.40;99.90;;;;;;5085038;28;20036;-67
2022/04/13 08:50:57;;;;;;;10.68;5.95;;;16.40;99.90;;;;;;5089223;28;20055;-68
2022/04/13 08:53:30;;;;;;;11.10;6.55;;;16.50;99.90;;;;;;5087778;28;20067;-67
2022/04/13 08:55:58;;;;;;;11.18;6.28;;;16.50;99.90;;;;;;5089345;28;20459;-67
2022/04/13 08:58:56;;;;;;;11.70;6.70;;;16.50;99.90;;;;;;5086132;28;20036;-67
2022/04/13 09:01:36;;;;;;;9.95;5.80;;;16.50;99.90;;;;;;5087945;28;20048;-67
2022/04/13 09:04:06;;;;;;;12.18;7.07;;;16.50;99.90;;;;;;5085958;28;20040;-68
2022/04/13 09:06:33;;;;;;;15.50;7.38;;;16.50;99.90;;;;;;5084657;28;20543;-68
2022/04/13 09:09:01;;;;;;;12.80;7.65;;;16.50;99.90;;;;;;5087185;28;20394;-68
2022/04/13 09:11:30;;;;;;;12.00;7.55;;;16.50;99.90;;;;;;5089085;28;20036;-68
2022/04/13 09:13:56;;;;;;;16.35;8.18;;;16.40;99.90;;;;;;5084535;28;20484;-67
2022/04/13 09:16:22;;;;;;;13.90;8.55;;;16.40;99.90;;;;;;5088557;28;20074;-67
2022/04/13 09:18:48;;;;;;;13.80;9.07;;;16.50;99.90;;;;;;5088700;28;20040;-68
2022/04/13 09:21:18;;;;;;;14.52;8.60;;;16.40;99.90;;;;;;5089581;28;20108;-66
2022/04/13 09:23:44;;;;;;;11.45;8.05;;;16.50;99.90;;;;;;5083056;28;20047;-67
2022/04/13 09:26:10;;;;;;;15.27;8.50;;;16.60;99.90;;;;;;5084232;28;20047;-67
2022/04/13 09:28:37;;;;;;;15.63;8.93;;;16.60;99.90;;;;;;5089060;28;20086;-67
2022/04/13 09:31:03;;;;;;;16.60;8.85;;;16.70;99.90;;;;;;5087451;28;20105;-68
2022/04/13 09:33:30;;;;;;;13.63;8.55;;;16.80;99.90;;;;;;5084507;28;20094;-68
2022/04/13 09:35:55;;;;;;;14.43;8.73;;;17.00;99.90;;;;;;5089425;28;20048;-68
2022/04/13 09:38:21;;;;;;;12.93;8.90;;;17.20;99.90;;;;;;5088786;28;20052;-68
2022/04/13 09:40:49;;;;;;;12.70;8.40;;;17.20;99.90;;;;;;5087007;28;20040;-68
2022/04/13 09:43:20;;;;;;;12.65;8.48;;;17.50;99.90;;;;;;5088126;28;20039;-68
2022/04/13 09:45:51;;;;;;;12.23;8.35;;;17.60;99.90;;;;;;5069676;28;20040;-69
2022/04/13 09:48:21;;;;;;;12.95;8.75;;;17.90;99.90;;;;;;5083217;28;20044;-68
2022/04/13 09:50:48;;;;;;;14.05;7.90;;;18.10;99.90;;;;;;5086601;28;20032;-69
2022/04/13 09:53:16;;;;;;;11.88;8.13;;;18.30;99.90;;;;;;5089066;28;20500;-69
2022/04/13 09:55:44;;;;;;;14.05;8.15;;;18.30;99.90;;;;;;5080289;28;20140;-68
2022/04/13 09:58:14;;;;;;;10.60;7.15;;;18.40;99.90;;;;;;5085922;28;20036;-67
2022/04/13 10:00:42;;;;;;;13.18;6.70;;;18.50;99.90;;;;;;5070056;28;20052;-68
2022/04/13 10:03:16;;;;;;;12.73;7.15;;;18.60;99.90;;;;;;5084190;28;20105;-68
2022/04/13 10:05:44;;;;;;;12.85;6.53;;;18.50;99.90;;;;;;5087291;28;20111;-68
2022/04/13 10:08:12;;;;;;;10.18;5.93;;;18.50;99.90;;;;;;5086043;28;20032;-68
2022/04/13 10:10:42;;;;;;;10.85;5.95;;;18.50;99.90;;;;;;5068988;28;20044;-68
2022/04/13 10:13:08;;;;;;;13.82;6.05;;;18.40;99.90;;;;;;5081939;28;20097;-68
2022/04/13 10:15:34;;;;;;;9.05;5.00;;;18.50;99.90;;;;;;5086491;28;20442;-68
2022/04/13 10:18:00;;;;;;;9.60;5.10;;;18.50;99.90;;;;;;5083149;28;20037;-68
2022/04/13 10:20:43;;;;;;;10.02;5.45;;;18.50;99.90;;;;;;5086054;28;20130;-67
2022/04/13 10:23:10;;;;;;;9.77;4.95;;;18.40;99.00;;;;;;5088950;28;20032;-68
2022/04/13 10:25:35;;;;;;;9.18;4.55;;;18.40;99.90;;;;;;5085945;28;20045;-67
2022/04/13 10:28:02;;;;;;;8.10;3.83;;;18.50;99.70;;;;;;5089032;28;20032;-67
2022/04/13 10:30:32;;;;;;;9.80;4.55;;;18.60;98.60;;;;;;5088383;28;20101;-68
2022/04/13 10:33:07;;;;;;;8.20;4.82;;;18.40;96.50;;;;;;5087173;28;20105;-69
2022/04/13 10:35:34;;;;;;;;;;;18.60;97.30;;;;;;5086412;28;20089;-69
2022/04/13 10:38:00;;;;;;;6.70;4.30;;;18.70;97.00;;;;;;5069410;28;19925;-68
2022/04/13 10:40:31;;;;;;;7.03;4.32;;;18.80;96.10;;;;;;5082280;28;20043;-68
2022/04/13 10:43:01;;;;;;;10.60;5.20;;;18.80;95.50;;;;;;5086953;28;20139;-69
2022/04/13 10:45:28;;;;;;;9.57;5.18;;;18.90;95.10;;;;;;5086903;28;20187;-68
2022/04/13 10:48:09;;;;;;;7.50;4.75;;;19.00;94.90;;;;;;5090415;28;20040;-69
2022/04/13 10:50:37;;;;;;;8.10;4.80;;;19.10;94.40;;;;;;5094185;28;20132;-69
2022/04/13 10:53:14;;;;;;;7.95;4.40;;;19.00;94.70;;;;;;5088608;28;20052;-69
2022/04/13 10:55:41;;;;;;;8.32;4.05;;;19.20;95.00;;;;;;5085605;28;20082;-68
2022/04/13 10:58:17;;;;;;;6.95;3.20;;;19.20;93.70;;;;;;5079997;28;20077;-69
2022/04/13 11:00:46;;;;;;;8.27;3.47;;;19.30;92.90;;;;;;5080211;28;20078;-68
2022/04/13 11:03:12;;;;;;;7.28;4.00;;;19.30;91.10;;;;;;5081798;28;20048;-69
2022/04/13 11:05:40;;;;;;;9.07;4.60;;;19.30;92.10;;;;;;5077648;28;20028;-68
2022/04/13 11:08:21;;;;;;;8.07;4.40;;;19.20;92.30;;;;;;5079777;28;20044;-68
2022/04/13 11:10:48;;;;;;;7.95;4.35;;;19.30;92.40;;;;;;5075481;28;20092;-68
2022/04/13 11:13:15;;;;;;;8.98;4.10;;;19.20;92.00;;;;;;5076223;28;20044;-68
2022/04/13 11:15:49;;;;;;;8.93;4.82;;;19.40;92.40;;;;;;5078554;28;20064;-68
2022/04/13 11:18:17;;;;;;;10.07;4.93;;;19.60;93.00;;;;;;5080873;28;20184;-68
2022/04/13 11:21:01;;;;;;;9.98;5.93;;;19.70;93.50;;;;;;5080480;28;20098;-68
2022/04/13 11:23:49;;;;;;;11.40;6.30;;;19.60;93.80;;;;;;5079320;28;20332;-68
2022/04/13 11:26:26;;;;;;;10.38;7.03;;;19.50;93.80;;;;;;5078357;28;20081;-69
2022/04/13 11:29:17;;;;;;;10.90;6.50;;;19.30;95.50;;;;;;5079248;28;20044;-69
2022/04/13 11:32:10;;;;;;;12.02;7.15;;;19.40;96.20;;;;;;5077822;28;20046;-69
2022/04/13 11:34:39;;;;;;;10.10;6.72;;;19.30;97.20;;;;;;5080899;28;20120;-69
2022/04/13 11:37:08;;;;;;;13.60;6.88;;;19.40;97.60;;;;;;5080676;28;20111;-70
2022/04/13 11:39:50;;;;;;;12.35;7.32;;;19.40;98.20;;;;;;5103521;28;20051;-69
2022/04/13 11:42:34;;;;;;;12.70;6.93;;;19.20;97.30;;;;;;5090212;28;20522;-69
2022/04/13 11:45:04;;;;;;;14.02;8.02;;;19.20;98.50;;;;;;5091534;28;20151;-68
2022/04/13 11:47:39;;;;;;;15.05;7.63;;;19.10;99.20;;;;;;5084763;28;20395;-69
2022/04/13 11:50:29;;;;;;;13.35;7.10;;;19.20;99.50;;;;;;5078560;28;20050;-68
2022/04/13 11:53:03;;;;;;;15.68;6.93;;;19.00;99.90;;;;;;5089418;28;20476;-69
2022/04/13 11:55:41;;;;;;;12.15;6.60;;;19.10;98.90;;;;;;5089465;28;20399;-68
2022/04/13 11:58:07;;;;;;;13.00;7.53;;;19.00;99.10;;;;;;5088175;28;20456;-68
2022/04/13 12:00:59;;;;;;;15.20;7.07;;;19.00;99.30;;;;;;5090461;28;20048;-69
2022/04/13 12:03:35;;;;;;;11.77;5.95;;;19.00;99.10;;;;;;5088432;28;20127;-68
2022/04/13 12:06:07;;;;;;;11.35;5.53;;;18.70;98.40;;;;;;5088478;28;20087;-68
2022/04/13 12:08:41;;;;;;;10.63;5.00;;;18.60;99.00;;;;;;5089154;28;20525;-69
2022/04/13 12:11:08;;;;;;;10.43;4.90;;;18.60;99.50;;;;;;5085462;28;20158;-68
2022/04/13 12:13:50;;;;;;;8.68;4.25;;;18.30;99.90;;;;;;5087965;28;20108;-69
2022/04/13 12:16:18;;;;;;;8.88;4.05;;;18.20;99.90;;;;;;5089914;28;20059;-69
2022/04/13 12:18:43;;;;;;;10.18;4.10;;;18.20;99.90;;;;;;5088661;28;20066;-68
2022/04/13 12:21:12;;;;;;;11.23;3.75;;;18.10;99.90;;;;;;5089920;28;20422;-68
2022/04/13 12:23:39;;;;;;;10.32;3.85;;;18.20;99.90;;;;;;5086706;28;20150;-69
2022/04/13 12:26:06;;;;;;;10.60;4.05;;;18.20;99.90;;;;;;5089140;28;20037;-69
2022/04/13 12:28:33;;;;;;;10.52;4.00;;;18.10;99.70;;;;;;5086729;28;20145;-69
2022/04/13 12:31:03;;;;;;;10.90;3.95;;;18.10;99.70;;;;;;5089480;28;20047;-69
2022/04/13 12:33:30;;;;;;;12.18;4.22;;;18.20;99.60;;;;;;5087769;28;20056;-68
2022/04/13 12:35:58;;;;;;;9.18;3.83;;;18.30;99.50;;;;;;5086469;28;20044;-68
2022/04/13 12:38:29;;;;;;;9.68;3.47;;;18.30;99.30;;;;;;5084955;28;20040;-68
2022/04/13 12:41:18;;;;;;;10.98;4.20;;;18.30;99.10;;;;;;5085353;28;20059;-69